Teneimaru No.44 — JD4155 — position and weather

sailwx.info

Track history (hours):
 
Tides and Currents Weather Stations Pressure Air Temp Water Temp Dewpoint Dewpoint Depression Visibility Wind Speed Wind Dir Waves Ship Positions

Teneimaru No.44

Last reported at 2018-Feb-20 04:40 UTC. Time now 2018-Feb-20 05:20 UTC.
Position N 33°45' E 132°02'.

Length 70 m; draft 3 m.

Type: Cargo ship. MMSI: 431009147.

Date/timePositionNaut miles runAvg speedWind from/ knotsBaromVisibWave heightAir tempDewpointWater temp
2018-Feb-20 04:40N 33°45' E 132°02'211.2
2018-Feb-20 04:30N 33°47' E 132°01'610.6
2018-Feb-20 03:54N 33°51' E 131°55'410.3
2018-Feb-20 03:30N 33°53' E 131°51'510.2
2018-Feb-20 03:00N 33°56' E 131°46'610.1
2018-Feb-20 02:24N 33°59' E 131°40'4 9.7
2018-Feb-20 02:00N 34°01' E 131°36'1 1.5
2018-Feb-20 01:30N 34°02' E 131°36'0 0.0
2018-Feb-20 00:59N 34°02' E 131°36'0 0.0
2018-Feb-20 00:30N 34°02' E 131°36'3 5.8
2018-Feb-20 00:00N 34°00' E 131°38'611.5
2018-Feb-19 23:30N 33°57' E 131°44'1411.5
2018-Feb-19 22:18N 33°49' E 131°58'411.9
2018-Feb-19 21:56N 33°46' E 132°02'810.9
2018-Feb-19 21:13N 33°49' E 132°10'1111.3
2018-Feb-19 20:15N 33°51' E 132°23'312.0
2018-Feb-19 19:58N 33°53' E 132°26'612.9
2018-Feb-19 19:30N 33°57' E 132°32'612.7
2018-Feb-19 19:00N 34°01' E 132°37'7511.3
2018-Feb-19 12:20N 34°27' E 134°03'1012.2
2018-Feb-19 11:34N 34°24' E 134°14'111.7
2018-Feb-19 11:30N 34°24' E 134°15'611.3
2018-Feb-19 11:00N 34°25' E 134°22'611.1
2018-Feb-19 10:30N 34°27' E 134°28'510.9
2018-Feb-19 10:00N 34°29' E 134°34'510.7
2018-Feb-19 09:30N 34°31' E 134°40'510.4
2018-Feb-19 09:00N 34°33' E 134°46'5 9.7
2018-Feb-19 08:30N 34°35' E 134°51'4 8.8
2018-Feb-19 08:00N 34°37' E 134°56'4 7.8
2018-Feb-19 07:30N 34°37' E 135°01'4 7.0
2018-Feb-19 07:00N 34°36' E 135°05'510.2
2018-Feb-19 06:30N 34°35' E 135°11'510.5
2018-Feb-19 06:00N 34°33' E 135°17'510.5
2018-Feb-19 05:30N 34°32' E 135°23'1 2.6
2018-Feb-19 05:00N 34°30' E 135°23'0 0.0
2018-Feb-19 04:30N 34°30' E 135°23'0 0.1
2018-Feb-19 04:00N 34°30' E 135°23'4 7.4
2018-Feb-19 03:30N 34°33' E 135°20'510.1
2018-Feb-19 03:00N 34°36' E 135°15'5 9.7
2018-Feb-19 02:30N 34°38' E 135°10'1 1.6
2018-Feb-19 02:00N 34°39' E 135°10'0 0.0
2018-Feb-19 01:30N 34°39' E 135°10'0 0.0
2018-Feb-19 00:59N 34°39' E 135°10'0 0.0
2018-Feb-19 00:30N 34°39' E 135°10'0 0.0
2018-Feb-19 00:00N 34°39' E 135°10'0 0.0
2018-Feb-18 23:30N 34°39' E 135°10'0 0.0
2018-Feb-18 23:00N 34°39' E 135°10'0 0.0
2018-Feb-18 22:30N 34°39' E 135°10'0 0.0
2018-Feb-18 22:00N 34°39' E 135°10'0 0.3
2018-Feb-18 21:30N 34°39' E 135°10'3 5.2
2018-Feb-18 21:00N 34°37' E 135°08'4 8.8
2018-Feb-18 20:30N 34°36' E 135°03'611.7
2018-Feb-18 20:00N 34°36' E 134°56'612.1
2018-Feb-18 19:30N 34°38' E 134°49'611.2
2018-Feb-18 19:00N 34°38' E 134°42'610.7
2018-Feb-18 18:29N 34°39' E 134°35'4 0.2
2018-Feb-17 17:25N 34°40' E 134°31'134 7.6
2018-Feb-16 23:51N 33°45' E 132°03'21 9.8
2018-Feb-16 21:42N 33°58' E 131°43'2 9.5
2018-Feb-16 21:29N 33°59' E 131°41'5 9.6
2018-Feb-16 21:00N 34°02' E 131°36'1 1.3
2018-Feb-16 20:31N 34°02' E 131°36'0 0.0
2018-Feb-16 20:00N 34°02' E 131°36'0 0.0
2018-Feb-16 19:30N 34°02' E 131°36'3 5.3
2018-Feb-16 18:59N 34°00' E 131°38'510.9
2018-Feb-16 18:30N 33°58' E 131°43'1010.4
2018-Feb-16 17:32N 33°52' E 131°53'210.3
2018-Feb-16 17:21N 33°51' E 131°55'2210.0
2018-Feb-16 15:10N 33°50' E 132°21'211.4
2018-Feb-16 14:58N 33°51' E 132°24'611.6
2018-Feb-16 14:29N 33°55' E 132°29'610.9
2018-Feb-16 13:54N 33°59' E 132°35'410.9
2018-Feb-16 13:31N 34°02' E 132°39'81 9.8
2018-Feb-16 05:17N 34°32' E 134°09'4 9.9
2018-Feb-16 04:50N 34°34' E 134°14'410.4
2018-Feb-16 04:29N 34°36' E 134°18'510.6
2018-Feb-16 04:00N 34°39' E 134°23'510.8
2018-Feb-16 03:30N 34°42' E 134°29'611.2
2018-Feb-16 03:00N 34°43' E 134°35'5 8.8
2018-Feb-16 02:28N 34°47' E 134°39'0 0.0
2018-Feb-16 01:55N 34°47' E 134°39'0 0.0
2018-Feb-16 00:49N 34°47' E 134°39'0 0.0
2018-Feb-16 00:30N 34°47' E 134°39'105 9.0
2018-Feb-15 12:51N 34°00' E 132°45'410.8
2018-Feb-15 12:29N 33°57' E 132°42'510.9
2018-Feb-15 12:00N 33°53' E 132°37'710.6
2018-Feb-15 11:19N 33°46' E 132°35'31 5.6
2018-Feb-15 05:46N 33°49' E 131°58'810.4
2018-Feb-15 04:59N 33°54' E 131°50'610.5
2018-Feb-15 04:27N 33°57' E 131°44'610.6
2018-Feb-15 03:53N 34°00' E 131°38'3 6.9
2018-Feb-15 03:30N 34°02' E 131°36'0 0.0
2018-Feb-15 03:00N 34°02' E 131°36'0 0.0
2018-Feb-15 02:30N 34°02' E 131°36'1 1.0
2018-Feb-15 01:59N 34°02' E 131°36'610.7
2018-Feb-15 01:27N 33°59' E 131°42'1211.0
2018-Feb-15 00:22N 33°52' E 131°53'24 9.2
2018-Feb-14 21:47N 33°51' E 132°22'3 9.2
2018-Feb-14 21:29N 33°52' E 132°25'5 9.3
2018-Feb-14 21:00N 33°55' E 132°29'6 9.9
2018-Feb-14 20:24N 33°59' E 132°34'410.4
2018-Feb-14 20:00N 34°01' E 132°38'8310.4
2018-Feb-14 12:05N 34°24' E 134°14'111.6
2018-Feb-14 11:59N 34°24' E 134°16'511.3
2018-Feb-14 11:30N 34°25' E 134°22'611.2
2018-Feb-14 11:00N 34°27' E 134°28'511.0
2018-Feb-14 10:30N 34°30' E 134°35'611.1
2018-Feb-14 10:00N 34°31' E 134°41'611.2
2018-Feb-14 09:30N 34°33' E 134°47'611.3
2018-Feb-14 09:00N 34°36' E 134°53'511.0
2018-Feb-14 08:31N 34°38' E 134°60'510.5
2018-Feb-14 08:00N 34°36' E 135°06'510.5
2018-Feb-14 07:31N 34°37' E 135°12'510.3
2018-Feb-14 07:00N 34°38' E 135°18'510.1
2018-Feb-14 06:30N 34°39' E 135°24'1 2.0
2018-Feb-14 05:59N 34°40' E 135°25'0 0.0
2018-Feb-14 05:30N 34°40' E 135°25'0 0.0
2018-Feb-14 05:00N 34°40' E 135°25'0 0.0
2018-Feb-14 04:30N 34°40' E 135°25'0 0.0
2018-Feb-14 04:00N 34°40' E 135°25'3 5.7
2018-Feb-14 03:30N 34°39' E 135°22'510.1
2018-Feb-14 03:00N 34°38' E 135°16'510.0
2018-Feb-14 02:30N 34°36' E 135°10'5 9.8
2018-Feb-14 02:00N 34°35' E 135°04'5 9.3
2018-Feb-14 01:30N 34°37' E 134°59'5 9.7
2018-Feb-14 00:58N 34°35' E 134°53'4 8.4
2018-Feb-14 00:30N 34°35' E 134°49'4 8.5
2018-Feb-14 00:00N 34°34' E 134°44'20 4.6
2018-Feb-13 19:47N 34°34' E 134°20'0 0.0
2018-Feb-13 10:20N 34°34' E 134°20'3 9.7
2018-Feb-13 10:00N 34°34' E 134°24'510.0
2018-Feb-13 09:30N 34°30' E 134°28'510.4
2018-Feb-13 08:59N 34°26' E 134°32'510.0
2018-Feb-13 08:31N 34°22' E 134°35'910.7
2018-Feb-13 07:40N 34°14' E 134°39'24 0.6
2018-Feb-11 17:31N 33°52' E 134°52'010.7
2018-Feb-11 17:29N 33°52' E 134°52'510.6
2018-Feb-11 17:00N 33°57' E 134°53'611.0
2018-Feb-11 16:30N 34°03' E 134°54'510.9
2018-Feb-11 16:00N 34°08' E 134°56'611.6
2018-Feb-11 15:30N 34°14' E 134°57'612.0
2018-Feb-11 15:00N 34°19' E 135°00'611.5
2018-Feb-11 14:30N 34°23' E 135°06'611.4
2018-Feb-11 14:00N 34°26' E 135°11'510.7
2018-Feb-11 13:30N 34°29' E 135°17'510.2
2018-Feb-11 13:00N 34°32' E 135°22'  
Track history (hours):
 
Tides and Currents Weather Stations Pressure Air Temp Water Temp Dewpoint Dewpoint Depression Visibility Wind Speed Wind Dir Waves Ship Positions

Teneimaru No.44

Last reported at 2018-Feb-20 04:40 UTC. Time now 2018-Feb-20 05:20 UTC.
Position N 33°45' E 132°02'.

Length 70 m; draft 3 m.

Type: Cargo ship. MMSI: 431009147.

Date/timePositionNaut miles runAvg speedWind from/ knotsBaromVisibWave heightAir tempDewpointWater temp
2018-Feb-20 04:40N 33°45' E 132°02'211.2
2018-Feb-20 04:30N 33°47' E 132°01'610.6
2018-Feb-20 03:54N 33°51' E 131°55'410.3
2018-Feb-20 03:30N 33°53' E 131°51'510.2
2018-Feb-20 03:00N 33°56' E 131°46'610.1
2018-Feb-20 02:24N 33°59' E 131°40'4 9.7
2018-Feb-20 02:00N 34°01' E 131°36'1 1.5
2018-Feb-20 01:30N 34°02' E 131°36'0 0.0
2018-Feb-20 00:59N 34°02' E 131°36'0 0.0
2018-Feb-20 00:30N 34°02' E 131°36'3 5.8
2018-Feb-20 00:00N 34°00' E 131°38'611.5
2018-Feb-19 23:30N 33°57' E 131°44'1411.5
2018-Feb-19 22:18N 33°49' E 131°58'411.9
2018-Feb-19 21:56N 33°46' E 132°02'810.9
2018-Feb-19 21:13N 33°49' E 132°10'1111.3
2018-Feb-19 20:15N 33°51' E 132°23'312.0
2018-Feb-19 19:58N 33°53' E 132°26'612.9
2018-Feb-19 19:30N 33°57' E 132°32'612.7
2018-Feb-19 19:00N 34°01' E 132°37'7511.3
2018-Feb-19 12:20N 34°27' E 134°03'1012.2
2018-Feb-19 11:34N 34°24' E 134°14'111.7
2018-Feb-19 11:30N 34°24' E 134°15'611.3
2018-Feb-19 11:00N 34°25' E 134°22'611.1
2018-Feb-19 10:30N 34°27' E 134°28'510.9
2018-Feb-19 10:00N 34°29' E 134°34'510.7
2018-Feb-19 09:30N 34°31' E 134°40'510.4
2018-Feb-19 09:00N 34°33' E 134°46'5 9.7
2018-Feb-19 08:30N 34°35' E 134°51'4 8.8
2018-Feb-19 08:00N 34°37' E 134°56'4 7.8
2018-Feb-19 07:30N 34°37' E 135°01'4 7.0
2018-Feb-19 07:00N 34°36' E 135°05'510.2
2018-Feb-19 06:30N 34°35' E 135°11'510.5
2018-Feb-19 06:00N 34°33' E 135°17'510.5
2018-Feb-19 05:30N 34°32' E 135°23'1 2.6
2018-Feb-19 05:00N 34°30' E 135°23'0 0.0
2018-Feb-19 04:30N 34°30' E 135°23'0 0.1
2018-Feb-19 04:00N 34°30' E 135°23'4 7.4
2018-Feb-19 03:30N 34°33' E 135°20'510.1
2018-Feb-19 03:00N 34°36' E 135°15'5 9.7
2018-Feb-19 02:30N 34°38' E 135°10'1 1.6
2018-Feb-19 02:00N 34°39' E 135°10'0 0.0
2018-Feb-19 01:30N 34°39' E 135°10'0 0.0
2018-Feb-19 00:59N 34°39' E 135°10'0 0.0
2018-Feb-19 00:30N 34°39' E 135°10'0 0.0
2018-Feb-19 00:00N 34°39' E 135°10'0 0.0
2018-Feb-18 23:30N 34°39' E 135°10'0 0.0
2018-Feb-18 23:00N 34°39' E 135°10'0 0.0
2018-Feb-18 22:30N 34°39' E 135°10'0 0.0
2018-Feb-18 22:00N 34°39' E 135°10'0 0.3
2018-Feb-18 21:30N 34°39' E 135°10'3 5.2
2018-Feb-18 21:00N 34°37' E 135°08'4 8.8
2018-Feb-18 20:30N 34°36' E 135°03'611.7
2018-Feb-18 20:00N 34°36' E 134°56'612.1
2018-Feb-18 19:30N 34°38' E 134°49'611.2
2018-Feb-18 19:00N 34°38' E 134°42'610.7
2018-Feb-18 18:29N 34°39' E 134°35'4 0.2
2018-Feb-17 17:25N 34°40' E 134°31'134 7.6
2018-Feb-16 23:51N 33°45' E 132°03'21 9.8
2018-Feb-16 21:42N 33°58' E 131°43'2 9.5
2018-Feb-16 21:29N 33°59' E 131°41'5 9.6
2018-Feb-16 21:00N 34°02' E 131°36'1 1.3
2018-Feb-16 20:31N 34°02' E 131°36'0 0.0
2018-Feb-16 20:00N 34°02' E 131°36'0 0.0
2018-Feb-16 19:30N 34°02' E 131°36'3 5.3
2018-Feb-16 18:59N 34°00' E 131°38'510.9
2018-Feb-16 18:30N 33°58' E 131°43'1010.4
2018-Feb-16 17:32N 33°52' E 131°53'210.3
2018-Feb-16 17:21N 33°51' E 131°55'2210.0
2018-Feb-16 15:10N 33°50' E 132°21'211.4
2018-Feb-16 14:58N 33°51' E 132°24'611.6
2018-Feb-16 14:29N 33°55' E 132°29'610.9
2018-Feb-16 13:54N 33°59' E 132°35'410.9
2018-Feb-16 13:31N 34°02' E 132°39'81 9.8
2018-Feb-16 05:17N 34°32' E 134°09'4 9.9
2018-Feb-16 04:50N 34°34' E 134°14'410.4
2018-Feb-16 04:29N 34°36' E 134°18'510.6
2018-Feb-16 04:00N 34°39' E 134°23'510.8
2018-Feb-16 03:30N 34°42' E 134°29'611.2
2018-Feb-16 03:00N 34°43' E 134°35'5 8.8
2018-Feb-16 02:28N 34°47' E 134°39'0 0.0
2018-Feb-16 01:55N 34°47' E 134°39'0 0.0
2018-Feb-16 00:49N 34°47' E 134°39'0 0.0
2018-Feb-16 00:30N 34°47' E 134°39'105 9.0
2018-Feb-15 12:51N 34°00' E 132°45'410.8
2018-Feb-15 12:29N 33°57' E 132°42'510.9
2018-Feb-15 12:00N 33°53' E 132°37'710.6
2018-Feb-15 11:19N 33°46' E 132°35'31 5.6
2018-Feb-15 05:46N 33°49' E 131°58'810.4
2018-Feb-15 04:59N 33°54' E 131°50'610.5
2018-Feb-15 04:27N 33°57' E 131°44'610.6
2018-Feb-15 03:53N 34°00' E 131°38'3 6.9
2018-Feb-15 03:30N 34°02' E 131°36'0 0.0
2018-Feb-15 03:00N 34°02' E 131°36'0 0.0
2018-Feb-15 02:30N 34°02' E 131°36'1 1.0
2018-Feb-15 01:59N 34°02' E 131°36'610.7
2018-Feb-15 01:27N 33°59' E 131°42'1211.0
2018-Feb-15 00:22N 33°52' E 131°53'24 9.2
2018-Feb-14 21:47N 33°51' E 132°22'3 9.2
2018-Feb-14 21:29N 33°52' E 132°25'5 9.3
2018-Feb-14 21:00N 33°55' E 132°29'6 9.9
2018-Feb-14 20:24N 33°59' E 132°34'410.4
2018-Feb-14 20:00N 34°01' E 132°38'8310.4
2018-Feb-14 12:05N 34°24' E 134°14'111.6
2018-Feb-14 11:59N 34°24' E 134°16'511.3
2018-Feb-14 11:30N 34°25' E 134°22'611.2
2018-Feb-14 11:00N 34°27' E 134°28'511.0
2018-Feb-14 10:30N 34°30' E 134°35'611.1
2018-Feb-14 10:00N 34°31' E 134°41'611.2
2018-Feb-14 09:30N 34°33' E 134°47'611.3
2018-Feb-14 09:00N 34°36' E 134°53'511.0
2018-Feb-14 08:31N 34°38' E 134°60'510.5
2018-Feb-14 08:00N 34°36' E 135°06'510.5
2018-Feb-14 07:31N 34°37' E 135°12'510.3
2018-Feb-14 07:00N 34°38' E 135°18'510.1
2018-Feb-14 06:30N 34°39' E 135°24'1 2.0
2018-Feb-14 05:59N 34°40' E 135°25'0 0.0
2018-Feb-14 05:30N 34°40' E 135°25'0 0.0
2018-Feb-14 05:00N 34°40' E 135°25'0 0.0
2018-Feb-14 04:30N 34°40' E 135°25'0 0.0
2018-Feb-14 04:00N 34°40' E 135°25'3 5.7
2018-Feb-14 03:30N 34°39' E 135°22'510.1
2018-Feb-14 03:00N 34°38' E 135°16'510.0
2018-Feb-14 02:30N 34°36' E 135°10'5 9.8
2018-Feb-14 02:00N 34°35' E 135°04'5 9.3
2018-Feb-14 01:30N 34°37' E 134°59'5 9.7
2018-Feb-14 00:58N 34°35' E 134°53'4 8.4
2018-Feb-14 00:30N 34°35' E 134°49'4 8.5
2018-Feb-14 00:00N 34°34' E 134°44'20 4.6
2018-Feb-13 19:47N 34°34' E 134°20'0 0.0
2018-Feb-13 10:20N 34°34' E 134°20'3 9.7
2018-Feb-13 10:00N 34°34' E 134°24'510.0
2018-Feb-13 09:30N 34°30' E 134°28'510.4
2018-Feb-13 08:59N 34°26' E 134°32'510.0
2018-Feb-13 08:31N 34°22' E 134°35'910.7
2018-Feb-13 07:40N 34°14' E 134°39'24 0.6
2018-Feb-11 17:31N 33°52' E 134°52'010.7
2018-Feb-11 17:29N 33°52' E 134°52'510.6
2018-Feb-11 17:00N 33°57' E 134°53'611.0
2018-Feb-11 16:30N 34°03' E 134°54'510.9
2018-Feb-11 16:00N 34°08' E 134°56'611.6
2018-Feb-11 15:30N 34°14' E 134°57'612.0
2018-Feb-11 15:00N 34°19' E 135°00'611.5
2018-Feb-11 14:30N 34°23' E 135°06'611.4
2018-Feb-11 14:00N 34°26' E 135°11'510.7
2018-Feb-11 13:30N 34°29' E 135°17'510.2
2018-Feb-11 13:00N 34°32' E 135°22'  

Dump ship's entire track history